Time;durP1;ratioP1;P1;durP2;ratioP2;P2;SDS_P1;SDS_P2;PMS_P1;PMS_P2;Temp;Humidity;BMP_temperature;BMP_pressure;BME280_temperature;BME280_humidity;BME280_pressure;Samples;Min_cycle;Max_cycle;Signal;HPM_P1;HPM_P2
2023/07/12 00:02:19;;;;;;;5.60;2.90;;;;;;;17.53;56.36;96626.02;108257;1276;25492;-71
2023/07/12 00:04:50;;;;;;;4.10;2.80;;;;;;;17.52;56.60;96621.85;108266;1271;22555;-71
2023/07/12 00:07:22;;;;;;;4.20;3.10;;;;;;;17.51;56.59;96623.21;108238;1271;22587;-71
2023/07/12 00:09:53;;;;;;;4.50;3.20;;;;;;;17.54;56.59;96620.14;108235;1279;22640;-71
2023/07/12 00:12:25;;;;;;;5.50;3.80;;;;;;;17.52;56.70;96614.13;108261;1279;22542;-71
2023/07/12 00:14:56;;;;;;;5.60;3.90;;;;;;;17.50;56.76;96612.34;108241;1271;22527;-71
2023/07/12 00:17:27;;;;;;;8.90;4.30;;;;;;;17.46;56.95;96608.98;108244;1271;22527;-71
2023/07/12 00:19:58;;;;;;;8.50;4.20;;;;;;;17.43;57.09;96610.27;108252;1279;24290;-71
2023/07/12 00:22:29;;;;;;;5.10;4.00;;;;;;;17.38;57.25;96609.11;108234;1271;22524;-71
2023/07/12 00:25:00;;;;;;;4.80;3.80;;;;;;;17.35;57.39;96611.05;108263;1271;23202;-71
2023/07/12 00:27:31;;;;;;;7.70;4.00;;;;;;;17.34;57.35;96613.77;108237;1272;22700;-71
2023/07/12 00:30:08;;;;;;;5.80;3.90;;;;;;;17.32;57.42;96614.14;108225;1279;22562;-72
2023/07/12 00:32:40;;;;;;;5.60;4.10;;;;;;;17.28;57.45;96614.13;108232;1276;24050;-71
2023/07/12 00:35:17;;;;;;;6.00;4.40;;;;;;;17.25;57.59;96612.94;108271;1278;24244;-71
2023/07/12 00:37:49;;;;;;;6.60;4.10;;;;;;;17.25;57.69;96613.85;108243;1278;22619;-71
2023/07/12 00:40:35;;;;;;;6.40;4.00;;;;;;;17.26;57.70;96611.05;108216;1279;22658;-71
2023/07/12 00:43:17;;;;;;;4.40;3.60;;;;;;;17.28;57.50;96614.20;108263;1278;22637;-71
2023/07/12 00:45:50;;;;;;;6.00;3.20;;;;;;;17.32;57.50;96616.30;108304;1267;24249;-71
2023/07/12 00:48:21;;;;;;;4.70;3.30;;;;;;;17.37;57.28;96610.31;108246;1276;22527;-71
2023/07/12 00:50:53;;;;;;;4.10;3.60;;;;;;;17.44;57.16;96608.94;108240;1278;22521;-71
2023/07/12 00:53:25;;;;;;;3.80;2.60;;;;;;;17.51;56.91;96602.52;108234;1278;23363;-71
2023/07/12 00:56:02;;;;;;;4.60;3.40;;;;;;;17.62;56.88;96602.25;108273;1279;22555;-71
2023/07/12 00:58:38;;;;;;;5.00;3.50;;;;;;;17.72;56.76;96601.63;108274;1279;25274;-71
2023/07/12 01:01:10;;;;;;;4.70;3.90;;;;;;;17.77;56.61;96597.06;108259;1276;22541;-71
2023/07/12 01:03:46;;;;;;;5.00;3.40;;;;;;;17.79;56.52;96595.98;108276;1277;25374;-71
2023/07/12 01:06:19;;;;;;;3.80;3.00;;;;;;;17.79;56.48;96588.17;108207;1279;22615;-71
2023/07/12 01:08:51;;;;;;;6.00;3.90;;;;;;;17.79;56.47;96586.27;108214;1279;22630;-71
2023/07/12 01:11:24;;;;;;;4.90;3.50;;;;;;;17.77;56.47;96580.76;108259;1279;25244;-71
2023/07/12 01:13:57;;;;;;;7.50;3.80;;;;;;;17.77;56.49;96576.05;108255;1279;22520;-71
2023/07/12 01:16:30;;;;;;;5.00;4.00;;;;;;;17.78;56.50;96572.36;108266;1271;22517;-71
2023/07/12 01:19:01;;;;;;;5.70;3.80;;;;;;;17.77;56.42;96566.48;108261;1276;22578;-71
2023/07/12 01:21:33;;;;;;;5.30;3.50;;;;;;;17.74;56.48;96565.15;108277;1279;22538;-71
2023/07/12 01:24:05;;;;;;;6.10;3.50;;;;;;;17.70;56.47;96563.52;108185;1271;22547;-71
2023/07/12 01:26:38;;;;;;;6.30;3.50;;;;;;;17.67;56.51;96559.25;108252;1272;25368;-71
2023/07/12 01:29:13;;;;;;;5.20;4.00;;;;;;;17.63;56.55;96559.23;108254;1271;31107;-71
2023/07/12 01:31:45;;;;;;;5.60;4.30;;;;;;;17.61;56.67;96558.93;108250;1271;22629;-71
2023/07/12 01:34:19;;;;;;;6.80;4.10;;;;;;;17.60;56.71;96559.06;108295;1279;26542;-71
2023/07/12 01:36:50;;;;;;;6.30;3.50;;;;;;;17.60;56.75;96553.70;108271;1279;24994;-71
2023/07/12 01:39:21;;;;;;;5.60;4.30;;;;;;;17.56;56.73;96551.22;108252;1279;22529;-71
2023/07/12 01:41:52;;;;;;;7.90;3.80;;;;;;;17.51;56.84;96550.50;108272;1279;22547;-71
2023/07/12 01:44:23;;;;;;;4.80;3.60;;;;;;;17.45;56.89;96548.38;108243;1279;22528;-71
2023/07/12 01:46:54;;;;;;;9.00;4.80;;;;;;;17.41;57.02;96544.30;108269;1278;23230;-71
2023/07/12 01:49:25;;;;;;;6.00;4.10;;;;;;;17.38;57.20;96546.55;108313;1271;22546;-71
2023/07/12 01:51:57;;;;;;;4.90;3.50;;;;;;;17.35;57.25;96549.27;108305;1271;25859;-71
2023/07/12 01:54:27;;;;;;;7.20;4.70;;;;;;;17.31;57.35;96549.02;108264;1278;22538;-71
2023/07/12 01:56:58;;;;;;;6.80;4.00;;;;;;;17.27;57.50;96545.34;108279;1271;22536;-71
2023/07/12 01:59:31;;;;;;;7.30;4.00;;;;;;;17.23;57.61;96545.59;108289;1271;22539;-71
2023/07/12 02:02:10;;;;;;;7.10;4.30;;;;;;;17.19;57.72;96541.92;108286;1276;22555;-72
2023/07/12 02:04:41;;;;;;;5.80;3.90;;;;;;;17.18;57.80;96538.82;108297;1271;22665;-71
2023/07/12 02:07:12;;;;;;;5.60;3.90;;;;;;;17.18;57.82;96533.46;108331;1278;22535;-71
2023/07/12 02:10:03;;;;;;;6.50;3.80;;;;;;;17.19;57.82;96532.44;108307;1278;22551;-71
2023/07/12 02:12:34;;;;;;;5.50;4.10;;;;;;;17.20;57.80;96526.20;108327;1278;22525;-71
2023/07/12 02:15:06;;;;;;;6.60;4.10;;;;;;;17.23;57.81;96521.45;108440;1278;22544;-71
2023/07/12 02:17:37;;;;;;;5.80;3.90;;;;;;;17.27;57.71;96519.62;108458;1278;23252;-71
2023/07/12 02:20:11;;;;;;;5.80;3.90;;;;;;;17.32;57.56;96518.29;108326;1271;25171;-71
2023/07/12 02:22:43;;;;;;;4.90;3.50;;;;;;;17.35;57.47;96512.46;108324;1276;22522;-71
2023/07/12 02:25:15;;;;;;;5.70;3.90;;;;;;;17.38;57.32;96507.36;108347;1276;23190;-70
2023/07/12 02:27:46;;;;;;;5.90;3.80;;;;;;;17.41;57.27;96502.71;108290;1278;25412;-71
2023/07/12 02:30:21;;;;;;;6.30;4.20;;;;;;;17.41;57.19;96502.27;108264;1278;24291;-71
2023/07/12 02:32:54;;;;;;;6.30;3.60;;;;;;;17.42;57.13;96504.97;108353;1278;22549;-71
2023/07/12 02:35:29;;;;;;;5.10;3.50;;;;;;;17.46;57.03;96506.14;108312;1278;22530;-71
2023/07/12 02:38:01;;;;;;;5.60;3.50;;;;;;;17.52;56.92;96512.78;108330;1271;22641;-70
2023/07/12 02:40:33;;;;;;;6.60;3.80;;;;;;;17.56;56.79;96505.42;108305;1271;22570;-71
2023/07/12 02:43:04;;;;;;;4.50;3.50;;;;;;;17.59;56.68;96505.79;108345;1278;22535;-70
2023/07/12 02:45:36;;;;;;;4.10;3.30;;;;;;;17.63;56.54;96501.11;108388;1278;22531;-71
2023/07/12 02:48:08;;;;;;;4.80;3.30;;;;;;;17.67;56.41;96492.69;108285;1271;22523;-71
2023/07/12 02:50:39;;;;;;;4.70;3.30;;;;;;;17.73;56.26;96491.30;108248;1276;24157;-70
2023/07/12 02:53:20;;;;;;;5.90;3.70;;;;;;;17.79;56.13;96490.86;108258;1257;24217;-71
2023/07/12 02:55:52;;;;;;;4.60;3.00;;;;;;;17.85;56.00;96493.11;108270;1279;24307;-71
2023/07/12 02:58:24;;;;;;;3.80;3.10;;;;;;;17.87;55.86;96482.73;108237;1279;22530;-71
2023/07/12 03:01:02;;;;;;;6.50;3.70;;;;;;;17.91;55.70;96478.05;108296;1279;22530;-71
2023/07/12 03:03:34;;;;;;;5.00;3.30;;;;;;;17.95;55.61;96473.73;108220;1271;22600;-71
2023/07/12 03:08:53;;;;;;;4.60;3.10;;;;;;;18.01;55.39;96463.29;101443;1273;963934;-76
2023/07/12 03:11:27;;;;;;;5.20;3.00;;;;;;;18.04;55.24;96456.52;108139;1273;22771;-76
2023/07/12 03:14:00;;;;;;;3.70;3.20;;;;;;;18.10;55.19;96461.16;108236;1272;22521;-76
2023/07/12 03:16:32;;;;;;;4.20;2.90;;;;;;;18.13;55.02;96452.77;108332;1279;23386;-76
2023/07/12 03:19:04;;;;;;;3.80;3.40;;;;;;;18.16;55.01;96451.64;108335;1274;22597;-76
2023/07/12 03:21:35;;;;;;;4.10;3.30;;;;;;;18.18;54.91;96451.88;108301;1278;24145;-76
2023/07/12 03:24:08;;;;;;;3.20;2.80;;;;;;;18.21;54.91;96451.65;108350;1268;24240;-76
2023/07/12 03:26:42;;;;;;;3.90;2.70;;;;;;;18.24;54.78;96451.59;108344;1275;22591;-76
2023/07/12 03:29:14;;;;;;;4.60;2.90;;;;;;;18.24;54.72;96450.70;108398;1278;22531;-76
2023/07/12 03:31:46;;;;;;;4.90;3.10;;;;;;;18.27;54.64;96452.62;108362;1272;24135;-76
2023/07/12 03:34:17;;;;;;;3.50;3.10;;;;;;;18.30;54.62;96459.27;108347;1278;22546;-76
2023/07/12 03:36:50;;;;;;;4.30;2.90;;;;;;;18.32;54.54;96463.54;108311;1274;22530;-76
2023/07/12 03:39:26;;;;;;;4.30;3.10;;;;;;;18.34;54.53;96463.99;108355;1278;26612;-76
2023/07/12 03:41:58;;;;;;;4.80;3.30;;;;;;;18.35;54.47;96470.26;108318;1276;22522;-76
2023/07/12 03:44:30;;;;;;;4.50;3.30;;;;;;;18.35;54.48;96466.70;108351;1278;24231;-76
2023/07/12 03:47:05;;;;;;;6.40;3.90;;;;;;;18.32;54.49;96468.46;108360;1276;25237;-75
2023/07/12 03:49:36;;;;;;;4.30;3.50;;;;;;;18.29;54.54;96467.58;108358;1278;22550;-76
2023/07/12 03:52:08;;;;;;;6.40;3.80;;;;;;;18.25;54.60;96468.52;108363;1278;22636;-76
2023/07/12 03:54:39;;;;;;;5.70;3.60;;;;;;;18.22;54.68;96471.18;108336;1278;25421;-75
2023/07/12 03:57:13;;;;;;;5.40;3.90;;;;;;;18.21;54.77;96470.30;108356;1278;22683;-76
2023/07/12 03:59:44;;;;;;;5.50;3.90;;;;;;;18.19;54.79;96463.41;108325;1278;22553;-75
2023/07/12 04:02:17;;;;;;;5.40;3.40;;;;;;;18.20;54.80;96458.98;108370;1278;22557;-76
2023/07/12 04:04:48;;;;;;;6.30;3.60;;;;;;;18.22;54.84;96458.67;108351;1273;22551;-76
2023/07/12 04:07:21;;;;;;;6.30;3.60;;;;;;;18.25;54.95;96463.38;108349;1278;23646;-75
2023/07/12 04:09:57;;;;;;;6.00;3.40;;;;;;;18.29;54.98;96457.54;108300;1278;23054;-76
2023/07/12 04:12:31;;;;;;;5.40;3.50;;;;;;;18.32;54.96;96451.45;108328;1278;22557;-76
2023/07/12 04:15:02;;;;;;;6.30;3.50;;;;;;;18.34;54.97;96445.45;108328;1278;22528;-76
2023/07/12 04:17:37;;;;;;;5.00;3.30;;;;;;;18.36;55.03;96440.39;108359;1278;22526;-75
2023/07/12 04:20:11;;;;;;;4.60;3.30;;;;;;;18.36;54.93;96438.93;108343;1278;22533;-76
2023/07/12 04:22:42;;;;;;;5.20;3.30;;;;;;;18.38;54.90;96430.91;108454;1272;22533;-76
2023/07/12 04:25:19;;;;;;;3.70;3.10;;;;;;;18.42;54.91;96437.10;108346;1278;22648;-75
2023/07/12 04:27:50;;;;;;;3.90;2.90;;;;;;;18.45;54.92;96435.96;108328;1278;22547;-76
2023/07/12 04:30:23;;;;;;;4.70;3.00;;;;;;;18.49;54.93;96435.80;108375;1257;22559;-76
2023/07/12 04:32:55;;;;;;;6.30;3.30;;;;;;;18.56;54.98;96434.82;108336;1278;22517;-76
2023/07/12 04:35:26;;;;;;;6.80;2.50;;;;;;;18.62;54.96;96429.97;108380;1275;24280;-76
2023/07/12 04:37:58;;;;;;;3.50;2.60;;;;;;;18.68;54.91;96437.23;108344;1275;22555;-76
2023/07/12 04:40:29;;;;;;;5.50;3.60;;;;;;;18.74;54.97;96439.29;108353;1278;22669;-76
2023/07/12 04:43:00;;;;;;;4.50;3.20;;;;;;;18.83;54.87;96441.23;108336;1278;24376;-76
2023/07/12 04:45:31;;;;;;;5.90;3.60;;;;;;;18.89;54.96;96438.00;108353;1278;24262;-76
2023/07/12 04:48:05;;;;;;;4.90;3.00;;;;;;;18.96;54.97;96434.39;108351;1278;23106;-76
2023/07/12 04:50:37;;;;;;;4.60;3.70;;;;;;;19.06;54.90;96437.21;108287;1278;22606;-76
2023/07/12 04:53:08;;;;;;;4.50;3.20;;;;;;;19.17;55.04;96444.52;108342;1278;26139;-76
2023/07/12 04:55:40;;;;;;;4.90;3.30;;;;;;;19.30;55.06;96448.01;108376;1278;22558;-77
2023/07/12 04:58:12;;;;;;;5.10;3.00;;;;;;;19.46;54.98;96440.02;108337;1278;24217;-76
2023/07/12 05:00:45;;;;;;;4.60;3.70;;;;;;;19.59;54.77;96435.84;108325;1278;22932;-76
2023/07/12 05:03:17;;;;;;;6.40;3.30;;;;;;;19.71;54.63;96430.94;108381;1278;22529;-76
2023/07/12 05:05:48;;;;;;;5.10;3.30;;;;;;;19.82;54.50;96429.58;108375;1273;22543;-77
2023/07/12 05:08:19;;;;;;;3.60;2.90;;;;;;;19.93;54.41;96429.42;108389;1276;22540;-76
2023/07/12 05:10:51;;;;;;;4.60;3.00;;;;;;;20.08;54.10;96421.06;108249;1278;22560;-76
2023/07/12 05:13:22;;;;;;;6.80;3.70;;;;;;;20.16;53.71;96422.59;108341;1278;23048;-76
2023/07/12 05:15:55;;;;;;;5.20;3.30;;;;;;;20.22;53.58;96426.66;108379;1274;22579;-76
2023/07/12 05:18:29;;;;;;;5.90;3.20;;;;;;;20.34;53.37;96423.58;108432;1278;22532;-76
2023/07/12 05:21:00;;;;;;;4.30;3.70;;;;;;;20.51;53.49;96421.90;108350;1272;22523;-77
2023/07/12 05:23:32;;;;;;;4.00;3.20;;;;;;;20.71;53.27;96425.56;108364;1274;22529;-76
2023/07/12 05:26:03;;;;;;;3.80;3.20;;;;;;;21.33;53.38;96431.92;108337;1278;22597;-76
2023/07/12 05:28:34;;;;;;;4.60;3.40;;;;;;;22.04;52.16;96426.27;108397;1277;22685;-75
2023/07/12 05:31:14;;;;;;;5.20;3.50;;;;;;;22.15;51.14;96419.40;108383;1273;22538;-76
2023/07/12 05:33:47;;;;;;;3.90;3.40;;;;;;;22.18;51.03;96413.12;108357;1278;22530;-76
2023/07/12 05:36:18;;;;;;;4.10;3.50;;;;;;;22.16;50.73;96413.77;108379;1274;22534;-76
2023/07/12 05:38:50;;;;;;;5.40;4.10;;;;;;;22.08;50.85;96395.82;108376;1278;23441;-76
2023/07/12 05:41:21;;;;;;;6.30;3.90;;;;;;;22.02;50.88;96390.73;108292;1275;23214;-76
2023/07/12 05:43:56;;;;;;;4.50;3.60;;;;;;;21.81;50.39;96379.92;108408;1271;22538;-75
2023/07/12 05:46:31;;;;;;;5.00;3.60;;;;;;;21.62;50.25;96379.32;108331;1278;24463;-76
2023/07/12 05:49:10;;;;;;;5.00;3.50;;;;;;;21.49;50.37;96381.36;108349;1273;22551;-76
2023/07/12 05:51:46;;;;;;;4.60;3.90;;;;;;;21.42;50.46;96381.98;108415;1273;22712;-76
2023/07/12 05:54:37;;;;;;;4.90;3.50;;;;;;;21.39;50.53;96385.61;108485;1275;22525;-76
2023/07/12 05:57:12;;;;;;;4.30;3.40;;;;;;;21.34;50.47;96389.20;108469;1278;22881;-76
2023/07/12 05:59:48;;;;;;;5.10;3.70;;;;;;;21.28;50.55;96388.09;108504;1278;22551;-76
2023/07/12 06:02:21;;;;;;;3.70;3.30;;;;;;;21.32;50.67;96393.48;108494;1275;22522;-76
2023/07/12 06:04:56;;;;;;;5.40;4.00;;;;;;;21.49;50.92;96397.01;108440;1276;23978;-76
2023/07/12 06:07:28;;;;;;;4.80;3.60;;;;;;;21.69;50.89;96389.39;108485;1278;22540;-76
2023/07/12 06:10:02;;;;;;;6.10;3.70;;;;;;;21.76;50.73;96386.52;108470;1273;22605;-75
2023/07/12 06:12:33;;;;;;;5.90;3.90;;;;;;;21.90;50.51;96387.79;108527;1278;25282;-75
2023/07/12 06:15:04;;;;;;;6.00;3.50;;;;;;;22.06;50.36;96385.20;108363;1278;25478;-74
2023/07/12 06:17:35;;;;;;;4.60;3.40;;;;;;;22.26;50.41;96383.70;108353;1278;22538;-74
2023/07/12 06:20:17;;;;;;;5.50;3.50;;;;;;;22.57;50.28;96389.56;108343;1278;22528;-75
2023/07/12 06:22:48;;;;;;;4.90;3.80;;;;;;;23.14;49.91;96389.79;108290;1278;22581;-76
2023/07/12 06:25:21;;;;;;;5.30;3.80;;;;;;;23.61;49.48;96386.71;108312;1274;22697;-75
2023/07/12 06:28:00;;;;;;;7.00;3.70;;;;;;;23.82;48.89;96386.14;108322;1278;22529;-75
2023/07/12 06:30:32;;;;;;;4.60;3.70;;;;;;;24.00;48.78;96391.35;108290;1278;25439;-75
2023/07/12 06:33:07;;;;;;;5.20;3.90;;;;;;;24.15;48.40;96390.13;108216;1272;22542;-76
2023/07/12 06:35:44;;;;;;;4.50;3.60;;;;;;;24.05;48.31;96385.00;108302;1272;23347;-76
2023/07/12 06:38:17;;;;;;;5.90;4.50;;;;;;;23.84;48.19;96383.92;108160;1272;22560;-76
2023/07/12 06:40:51;;;;;;;5.60;4.20;;;;;;;23.62;48.23;96383.34;108262;1278;22533;-76
2023/07/12 06:43:24;;;;;;;5.90;4.20;;;;;;;23.47;48.33;96381.80;108337;1275;22536;-75
2023/07/12 06:45:58;;;;;;;4.70;4.00;;;;;;;23.51;48.99;96379.70;108181;1278;22534;-75
2023/07/12 06:48:34;;;;;;;5.10;4.10;;;;;;;24.15;48.99;96372.02;108435;1276;22572;-78
2023/07/12 06:51:05;;;;;;;6.10;3.60;;;;;;;24.86;48.55;96365.30;108368;1275;22554;-76
2023/07/12 06:53:39;;;;;;;5.10;4.10;;;;;;;25.45;47.88;96355.36;108423;1275;25431;-76
2023/07/12 06:56:11;;;;;;;6.00;4.10;;;;;;;26.00;47.69;96358.30;108453;1272;22569;-76
2023/07/12 06:58:43;;;;;;;5.00;3.70;;;;;;;26.53;46.81;96350.41;108455;1271;24878;-76
2023/07/12 07:01:18;;;;;;;5.90;4.50;;;;;;;26.94;46.00;96343.95;108427;1278;25319;-76
2023/07/12 07:03:52;;;;;;;4.90;4.30;;;;;;;27.27;45.44;96339.85;108299;1272;23634;-76
2023/07/12 07:06:26;;;;;;;7.70;4.40;;;;;;;27.51;45.00;96332.92;108221;1263;22533;-76
2023/07/12 07:09:05;;;;;;;5.30;4.50;;;;;;;27.67;44.28;96329.06;108293;1275;26446;-75
2023/07/12 07:11:44;;;;;;;7.80;5.70;;;;;;;27.90;43.56;96327.00;108394;1272;22542;-75
2023/07/12 07:14:27;;;;;;;5.80;4.60;;;;;;;28.12;42.99;96330.38;108522;1278;22605;-76
2023/07/12 07:16:59;;;;;;;8.50;5.00;;;;;;;28.32;42.38;96324.51;108455;1275;22574;-76
2023/07/12 07:19:31;;;;;;;4.80;3.90;;;;;;;28.32;41.91;96322.41;108483;1278;22559;-76
2023/07/12 07:22:02;;;;;;;6.70;4.60;;;;;;;28.37;41.78;96324.40;108486;1272;22525;-77
2023/07/12 07:24:36;;;;;;;5.50;4.40;;;;;;;28.42;41.53;96336.58;108472;1273;22538;-76
2023/07/12 07:27:08;;;;;;;5.70;4.30;;;;;;;28.45;40.94;96326.44;108431;1278;22542;-79
2023/07/12 07:29:42;;;;;;;5.30;4.30;;;;;;;28.34;40.66;96325.27;108417;1270;22550;-76
2023/07/12 07:32:13;;;;;;;6.40;4.40;;;;;;;28.26;40.43;96323.22;108442;1278;22525;-77
2023/07/12 07:34:45;;;;;;;5.70;4.40;;;;;;;28.15;40.78;96324.52;108311;1278;215113;-77
2023/07/12 07:37:17;;;;;;;9.40;4.70;;;;;;;28.24;40.86;96322.59;108530;1278;25323;-77
2023/07/12 07:39:48;;;;;;;6.50;4.80;;;;;;;28.18;41.11;96322.64;108473;1278;65022;-76
2023/07/12 07:42:19;;;;;;;6.20;4.70;;;;;;;28.08;40.70;96321.21;108406;1278;26416;-78
2023/07/12 07:44:51;;;;;;;7.30;4.90;;;;;;;27.51;40.44;96320.01;108397;1278;22528;-78
2023/07/12 07:47:22;;;;;;;6.50;5.10;;;;;;;27.18;41.02;96318.88;108402;1278;22637;-78
2023/07/12 07:49:53;;;;;;;5.60;4.60;;;;;;;27.48;41.23;96315.43;108345;1275;22546;-77
2023/07/12 07:52:25;;;;;;;8.00;4.80;;;;;;;27.95;41.29;96305.34;108383;1278;22524;-78
2023/07/12 07:54:59;;;;;;;5.60;4.60;;;;;;;28.22;40.62;96307.27;108322;1278;22934;-78
2023/07/12 07:57:33;;;;;;;5.90;4.80;;;;;;;27.93;40.40;96302.77;108375;1278;24410;-78
2023/07/12 08:00:10;;;;;;;4.90;4.40;;;;;;;27.91;40.59;96305.98;108315;1278;26517;-77
2023/07/12 08:02:43;;;;;;;5.90;5.00;;;;;;;27.96;40.19;96309.23;108337;1278;24285;-77
2023/07/12 08:05:15;;;;;;;5.30;4.80;;;;;;;28.07;40.33;96308.70;108429;1277;25073;-78
2023/07/12 08:07:48;;;;;;;6.00;4.70;;;;;;;27.90;39.96;96306.92;108454;1278;23146;-77
2023/07/12 08:10:20;;;;;;;7.70;5.40;;;;;;;27.84;40.17;96309.83;108314;1273;22532;-78
2023/07/12 08:12:52;;;;;;;7.50;4.60;;;;;;;27.93;40.44;96298.04;108357;1278;22533;-76
2023/07/12 08:15:27;;;;;;;6.30;4.10;;;;;;;27.97;40.26;96303.53;108379;1275;22528;-77
2023/07/12 08:17:58;;;;;;;5.80;4.60;;;;;;;27.89;40.31;96302.80;108380;1278;22575;-78
2023/07/12 08:20:31;;;;;;;6.40;4.70;;;;;;;27.75;40.37;96301.02;108321;1272;22619;-78
2023/07/12 08:23:03;;;;;;;5.70;4.40;;;;;;;27.52;40.39;96305.85;108302;1278;22520;-75
2023/07/12 08:25:35;;;;;;;6.90;4.80;;;;;;;27.32;40.55;96301.73;108288;1260;24247;-77
2023/07/12 08:28:06;;;;;;;6.00;4.50;;;;;;;27.35;40.71;96298.61;108189;1271;22793;-77
2023/07/12 08:30:51;;;;;;;5.30;4.40;;;;;;;27.45;40.77;96302.77;108325;1278;22581;-75
2023/07/12 08:33:23;;;;;;;7.60;4.80;;;;;;;27.60;40.84;96297.73;108259;1278;22679;-77
2023/07/12 08:35:54;;;;;;;6.40;4.60;;;;;;;27.70;40.94;96295.98;108354;1272;23613;-77
2023/07/12 08:38:31;;;;;;;5.30;4.20;;;;;;;27.88;40.78;96298.38;108329;1278;25370;-77
2023/07/12 08:41:03;;;;;;;5.00;4.20;;;;;;;28.15;40.75;96297.41;108326;1274;24539;-77
2023/07/12 08:43:35;;;;;;;6.90;4.60;;;;;;;28.40;40.67;96298.67;108347;1272;24272;-76
2023/07/12 08:46:14;;;;;;;4.90;4.40;;;;;;;28.57;40.45;96299.92;108300;1271;22641;-76
2023/07/12 08:48:51;;;;;;;6.70;4.40;;;;;;;28.63;40.49;96290.36;108301;1278;22524;-76
2023/07/12 08:51:36;;;;;;;7.40;4.20;;;;;;;28.61;40.27;96293.27;108326;1273;22543;-76
2023/07/12 08:54:23;;;;;;;5.90;4.20;;;;;;;28.54;40.48;96290.67;108275;1278;22582;-76
2023/07/12 08:57:12;;;;;;;4.70;3.70;;;;;;;28.44;40.82;96295.98;108313;1278;26323;-75
2023/07/12 08:59:43;;;;;;;7.20;3.90;;;;;;;28.44;41.31;96290.53;108105;1272;43244;-76
2023/07/12 09:02:21;;;;;;;5.90;4.10;;;;;;;28.47;41.29;96299.24;108162;1272;22522;-77
2023/07/12 09:04:55;;;;;;;5.50;3.90;;;;;;;28.29;41.28;96300.60;108218;1275;22589;-73
2023/07/12 09:07:34;;;;;;;4.60;4.00;;;;;;;27.98;41.51;96301.42;109817;1277;22645;-76
2023/07/12 09:10:09;;;;;;;6.50;4.90;;;;;;;27.66;41.72;96296.70;108247;1278;22713;-75
2023/07/12 09:12:40;;;;;;;5.80;4.20;;;;;;;27.57;42.59;96284.18;108365;1275;22573;-75
2023/07/12 09:15:14;;;;;;;5.80;4.30;;;;;;;27.53;42.97;96283.28;108402;1278;22575;-77
2023/07/12 09:17:48;;;;;;;5.70;4.90;;;;;;;27.47;42.94;96283.55;108368;1278;24339;-76
2023/07/12 09:20:29;;;;;;;6.80;5.40;;;;;;;27.34;43.49;96282.59;108404;1278;22524;-76
2023/07/12 09:23:07;;;;;;;8.90;5.50;;;;;;;27.17;43.91;96284.05;108389;1270;22613;-74
2023/07/12 09:25:47;;;;;;;7.80;5.30;;;;;;;26.95;44.34;96277.09;108310;1278;22522;-76
2023/07/12 09:28:19;;;;;;;7.30;5.00;;;;;;;26.83;44.59;96272.45;108382;1272;24229;-76
2023/07/12 09:30:52;;;;;;;7.20;5.40;;;;;;;26.71;44.89;96261.05;108342;1278;22648;-75
2023/07/12 09:33:27;;;;;;;6.60;5.20;;;;;;;26.60;45.25;96261.45;108427;1278;22538;-75
2023/07/12 09:36:07;;;;;;;6.90;5.40;;;;;;;26.52;45.47;96258.21;108357;1278;25415;-74
2023/07/12 09:38:41;;;;;;;6.00;4.70;;;;;;;26.37;45.65;96267.07;108342;1270;22529;-75
2023/07/12 09:41:20;;;;;;;8.80;5.50;;;;;;;26.28;46.14;96261.91;108291;1271;22529;-75
2023/07/12 09:43:58;;;;;;;8.20;5.50;;;;;;;26.22;46.28;96268.22;108358;1277;25515;-74
2023/07/12 09:46:37;;;;;;;7.50;5.20;;;;;;;26.20;46.57;96265.97;108343;1272;22501;-74
2023/07/12 09:49:15;;;;;;;6.80;5.40;;;;;;;26.15;46.77;96263.86;108356;1278;22531;-74
2023/07/12 09:51:57;;;;;;;8.20;6.20;;;;;;;26.04;47.36;96269.91;108323;1272;22907;-75
2023/07/12 09:54:41;;;;;;;8.10;6.60;;;;;;;25.97;47.75;96265.79;108324;1278;22521;-75
2023/07/12 09:57:23;;;;;;;7.90;5.90;;;;;;;25.89;48.13;96277.27;108368;1277;22528;-75
2023/07/12 10:00:01;;;;;;;7.50;5.90;;;;;;;25.81;48.14;96278.73;108376;1272;22525;-75
2023/07/12 10:02:42;;;;;;;8.20;6.20;;;;;;;25.68;48.28;96292.10;108392;1278;22556;-75
2023/07/12 10:05:19;;;;;;;7.70;6.40;;;;;;;25.54;48.79;96299.41;108362;1278;22577;-75
2023/07/12 10:07:58;;;;;;;8.40;6.00;;;;;;;25.35;49.51;96285.84;108316;1278;25307;-76
2023/07/12 10:10:35;;;;;;;7.00;5.60;;;;;;;25.08;50.35;96300.59;108260;1278;25424;-76
2023/07/12 10:13:20;;;;;;;7.40;5.80;;;;;;;24.78;51.39;96299.16;108373;1278;22556;-75
2023/07/12 10:15:53;;;;;;;9.60;6.70;;;;;;;24.48;52.48;96306.39;108390;1272;22538;-76
2023/07/12 10:18:40;;;;;;;7.20;6.40;;;;;;;24.35;53.42;96303.10;108636;1272;22563;-75
2023/07/12 10:21:18;;;;;;;8.10;6.50;;;;;;;24.35;54.64;96314.04;108450;1276;22532;-77
2023/07/12 10:23:53;;;;;;;8.30;6.50;;;;;;;24.43;55.09;96315.09;108538;1272;22542;-77
2023/07/12 10:26:24;;;;;;;9.00;6.40;;;;;;;24.42;55.54;96304.25;108475;1272;24273;-77
2023/07/12 10:29:03;;;;;;;10.40;7.10;;;;;;;24.31;56.22;96298.58;108498;1278;22536;-76
2023/07/12 10:31:45;;;;;;;8.20;6.60;;;;;;;24.30;57.00;96296.71;108446;1271;22528;-76
2023/07/12 10:34:29;;;;;;;7.60;6.40;;;;;;;24.33;57.32;96299.29;108526;1256;22597;-76
2023/07/12 10:37:06;;;;;;;8.20;6.50;;;;;;;24.33;57.54;96287.45;108380;1278;22557;-76
2023/07/12 10:39:43;;;;;;;8.20;6.30;;;;;;;24.35;57.39;96270.52;108385;1265;25669;-76
2023/07/12 10:42:30;;;;;;;10.70;7.20;;;;;;;24.39;57.44;96267.84;108341;1272;22523;-76
2023/07/12 10:45:05;;;;;;;7.40;6.50;;;;;;;24.47;57.73;96278.81;108347;1270;22523;-76
2023/07/12 10:47:41;;;;;;;8.60;6.80;;;;;;;24.57;58.12;96276.02;108306;1272;22554;-76
2023/07/12 10:50:25;;;;;;;8.20;7.10;;;;;;;24.60;58.16;96273.09;108347;1270;22564;-77
2023/07/12 10:53:08;;;;;;;8.00;6.80;;;;;;;24.59;58.19;96259.22;108287;1278;22554;-76
2023/07/12 10:55:47;;;;;;;10.20;6.90;;;;;;;24.56;58.21;96263.23;108325;1278;23529;-76
2023/07/12 10:58:27;;;;;;;8.00;6.60;;;;;;;24.58;58.45;96268.28;108310;1277;22521;-76
2023/07/12 11:01:04;;;;;;;9.20;6.90;;;;;;;24.53;58.05;96262.68;108262;1278;33177;-76
2023/07/12 11:03:49;;;;;;;10.80;6.80;;;;;;;24.45;57.86;96254.25;108313;1271;25292;-76
2023/07/12 11:06:29;;;;;;;8.00;7.00;;;;;;;24.43;57.71;96253.62;108315;1278;22521;-76
2023/07/12 11:09:11;;;;;;;7.80;6.50;;;;;;;24.43;57.67;96258.34;108316;1278;22533;-77
2023/07/12 11:11:49;;;;;;;8.30;6.90;;;;;;;24.52;57.79;96262.05;108230;1271;27652;-77
2023/07/12 11:14:44;;;;;;;10.00;7.20;;;;;;;24.69;57.85;96258.21;108453;1277;25243;-77
2023/07/12 11:17:22;;;;;;;9.20;7.00;;;;;;;24.99;57.70;96251.73;108365;1272;23996;-77
2023/07/12 11:20:20;;;;;;;10.10;7.40;;;;;;;25.13;56.88;96256.38;108442;1278;22547;-77
2023/07/12 11:23:22;;;;;;;8.60;7.20;;;;;;;25.13;56.59;96257.70;108504;1277;22580;-75
2023/07/12 11:26:03;;;;;;;8.60;7.00;;;;;;;25.10;56.51;96260.48;108458;1270;22528;-76
2023/07/12 11:28:47;;;;;;;7.90;6.40;;;;;;;25.02;56.37;96270.73;108394;1278;22550;-77
2023/07/12 11:31:33;;;;;;;10.30;7.00;;;;;;;24.95;56.31;96270.98;108434;1277;22522;-77
2023/07/12 11:34:19;;;;;;;8.00;6.70;;;;;;;24.85;56.33;96268.99;108482;1271;24182;-76
2023/07/12 11:36:57;;;;;;;10.20;7.00;;;;;;;24.79;56.40;96271.14;108365;1275;22528;-77
2023/07/12 11:39:32;;;;;;;8.30;7.10;;;;;;;24.75;56.62;96273.88;108359;1278;25344;-77
2023/07/12 11:42:20;;;;;;;10.30;7.20;;;;;;;24.73;56.66;96276.58;108394;1271;23873;-77
2023/07/12 11:45:04;;;;;;;9.60;7.60;;;;;;;24.70;56.68;96276.65;108308;1268;22526;-77
2023/07/12 11:47:40;;;;;;;10.40;7.10;;;;;;;24.64;56.67;96284.83;108394;1278;22517;-77
2023/07/12 11:50:22;;;;;;;8.70;7.30;;;;;;;24.58;56.68;96286.02;108407;1278;25404;-77
2023/07/12 11:52:57;;;;;;;9.80;7.40;;;;;;;24.51;56.83;96281.17;108348;1278;24291;-77
2023/07/12 11:55:31;;;;;;;10.10;7.90;;;;;;;24.46;56.94;96284.45;108365;1271;22544;-76
2023/07/12 11:58:18;;;;;;;9.20;7.10;;;;;;;24.47;57.41;96281.59;108339;1267;24204;-76
2023/07/12 12:00:54;;;;;;;8.90;6.70;;;;;;;24.48;57.43;96281.22;108161;1278;22950;-77
2023/07/12 12:03:28;;;;;;;9.50;6.90;;;;;;;24.50;57.45;96289.30;108326;1272;24264;-77